메인 페이지
METAR-TAF:

METAR-TAF

공항 :

리야드, 사우디아라비아

위도: 24-43N, 경도: 046-44E, 고도: 635m

METAR: 누락

시각: 06:11 (03:11 UTC)

예보

예보는 4 시간 11분 전, 23:00시(UTC)에 발표되었습니다.
예보 대상 시간: 15일 00시부터 16일 06시까지 (UTC)
여러 방향의 바람 3kt
시정 10km 이상
1500m 미만 상공 구름 및 적란운 없음
전환 중
15일 04시부터 15일 06시까지 (UTC)
12kt

TAF: OERY 142300Z 1500/1606 VRB03KT CAVOK BECMG 1504/1506 36012KT

4,000개 이상의 공항 관측 자료 및 예보 (METAR 및 TAF 보고).

지도상에서 검색 가능한 기상관측소가 노란 점과 빨간 점으로 표시되어 있습니다.

기상관측소 명을 보려면 표시 위로 마우스를 이동하세요.

날씨 관측과 예보를 보려면 클릭하세요.

지도 변경 : 확대하려면 엑스 표시가 있는 녹색 버튼, 축소하려면 빼기 표시가 있는 녹색 버튼, 다음 페이지의 지도를 보려면 녹색 화살표를 클릭하세요.


METAR-TAF: